Terminal Aerodrome Forecast
Issued by NWS Sterling, VA

Current Version | Previous Version | Graphics & Text | Print | Product List | Glossary On
Versions: 1 2 3 4 5 6 7 8 9 10 11 12 13 14 15 16 17
000
FTUS41 KLWX 252320
TAFMRB
TAF
KMRB 252320Z 2600/2624 VRB03KT P6SM FEW050 SCT200
     FM261400 20005KT P6SM FEW050 SCT130
     FM261600 20005KT P6SM BKN050 BKN130=

USA.gov is the U.S. government's official web portal to all federal, state and local government web resources and services.